sensor_id;sensor_type;location;lat;lon;timestamp;P1;durP1;ratioP1;P2;durP2;ratioP2
2175;SDS011;1094;49.902;10.876;2023-03-13T00:00:12;22.97;;;20.70;;
2175;SDS011;1094;49.902;10.876;2023-03-13T00:02:39;21.83;;;19.90;;
2175;SDS011;1094;49.902;10.876;2023-03-13T00:05:06;24.27;;;21.97;;
2175;SDS011;1094;49.902;10.876;2023-03-13T00:07:32;23.13;;;21.20;;
2175;SDS011;1094;49.902;10.876;2023-03-13T00:09:58;23.67;;;21.90;;
2175;SDS011;1094;49.902;10.876;2023-03-13T00:12:24;23.07;;;21.13;;
2175;SDS011;1094;49.902;10.876;2023-03-13T00:14:50;23.47;;;21.37;;
2175;SDS011;1094;49.902;10.876;2023-03-13T00:17:16;23.10;;;21.40;;
2175;SDS011;1094;49.902;10.876;2023-03-13T00:19:42;22.70;;;20.70;;
2175;SDS011;1094;49.902;10.876;2023-03-13T00:22:08;23.63;;;21.83;;
2175;SDS011;1094;49.902;10.876;2023-03-13T00:24:34;21.40;;;19.70;;
2175;SDS011;1094;49.902;10.876;2023-03-13T00:27:00;22.10;;;20.30;;
2175;SDS011;1094;49.902;10.876;2023-03-13T00:29:27;21.17;;;19.70;;
2175;SDS011;1094;49.902;10.876;2023-03-13T00:31:53;21.87;;;20.47;;
2175;SDS011;1094;49.902;10.876;2023-03-13T00:34:19;21.73;;;19.90;;
2175;SDS011;1094;49.902;10.876;2023-03-13T00:36:46;21.63;;;19.60;;
2175;SDS011;1094;49.902;10.876;2023-03-13T00:39:12;21.63;;;20.13;;
2175;SDS011;1094;49.902;10.876;2023-03-13T00:41:38;22.43;;;20.50;;
2175;SDS011;1094;49.902;10.876;2023-03-13T00:44:04;21.77;;;20.00;;
2175;SDS011;1094;49.902;10.876;2023-03-13T00:46:30;22.00;;;20.00;;
2175;SDS011;1094;49.902;10.876;2023-03-13T00:48:56;21.63;;;19.30;;
2175;SDS011;1094;49.902;10.876;2023-03-13T00:51:22;21.30;;;19.60;;
2175;SDS011;1094;49.902;10.876;2023-03-13T00:53:50;21.90;;;20.20;;
2175;SDS011;1094;49.902;10.876;2023-03-13T00:56:17;21.87;;;19.90;;
2175;SDS011;1094;49.902;10.876;2023-03-13T00:58:43;20.80;;;19.50;;
2175;SDS011;1094;49.902;10.876;2023-03-13T01:01:12;23.10;;;21.13;;
2175;SDS011;1094;49.902;10.876;2023-03-13T01:03:38;21.53;;;19.63;;
2175;SDS011;1094;49.902;10.876;2023-03-13T01:06:06;21.10;;;19.33;;
2175;SDS011;1094;49.902;10.876;2023-03-13T01:08:33;21.07;;;19.57;;
2175;SDS011;1094;49.902;10.876;2023-03-13T01:13:25;21.07;;;19.27;;
2175;SDS011;1094;49.902;10.876;2023-03-13T01:15:51;20.17;;;18.83;;
2175;SDS011;1094;49.902;10.876;2023-03-13T01:18:17;21.47;;;19.83;;
2175;SDS011;1094;49.902;10.876;2023-03-13T01:20:43;21.37;;;19.77;;
2175;SDS011;1094;49.902;10.876;2023-03-13T01:23:09;21.33;;;19.80;;
2175;SDS011;1094;49.902;10.876;2023-03-13T01:25:35;22.83;;;20.97;;
2175;SDS011;1094;49.902;10.876;2023-03-13T01:28:04;22.33;;;20.27;;
2175;SDS011;1094;49.902;10.876;2023-03-13T01:30:30;21.60;;;19.87;;
2175;SDS011;1094;49.902;10.876;2023-03-13T01:32:56;21.97;;;20.10;;
2175;SDS011;1094;49.902;10.876;2023-03-13T01:35:22;21.90;;;19.90;;
2175;SDS011;1094;49.902;10.876;2023-03-13T01:37:48;20.63;;;18.83;;
2175;SDS011;1094;49.902;10.876;2023-03-13T01:40:14;22.30;;;20.17;;
2175;SDS011;1094;49.902;10.876;2023-03-13T01:42:50;22.20;;;20.30;;
2175;SDS011;1094;49.902;10.876;2023-03-13T01:45:48;22.20;;;20.63;;
2175;SDS011;1094;49.902;10.876;2023-03-13T01:48:10;20.90;;;19.27;;
2175;SDS011;1094;49.902;10.876;2023-03-13T01:50:36;20.57;;;18.97;;
2175;SDS011;1094;49.902;10.876;2023-03-13T01:53:02;20.90;;;19.23;;
2175;SDS011;1094;49.902;10.876;2023-03-13T01:55:28;21.77;;;19.77;;
2175;SDS011;1094;49.902;10.876;2023-03-13T01:57:54;21.20;;;19.27;;
2175;SDS011;1094;49.902;10.876;2023-03-13T02:00:24;22.00;;;20.40;;
2175;SDS011;1094;49.902;10.876;2023-03-13T02:02:53;21.33;;;19.80;;
2175;SDS011;1094;49.902;10.876;2023-03-13T02:05:20;20.30;;;19.10;;
2175;SDS011;1094;49.902;10.876;2023-03-13T02:07:53;21.50;;;19.70;;
2175;SDS011;1094;49.902;10.876;2023-03-13T02:10:20;20.97;;;19.27;;
2175;SDS011;1094;49.902;10.876;2023-03-13T02:12:46;21.17;;;19.67;;
2175;SDS011;1094;49.902;10.876;2023-03-13T02:15:14;21.00;;;19.27;;
2175;SDS011;1094;49.902;10.876;2023-03-13T02:17:41;22.47;;;20.67;;
2175;SDS011;1094;49.902;10.876;2023-03-13T02:20:08;21.90;;;20.17;;
2175;SDS011;1094;49.902;10.876;2023-03-13T02:25:09;21.20;;;19.67;;
2175;SDS011;1094;49.902;10.876;2023-03-13T02:27:37;21.30;;;19.73;;
2175;SDS011;1094;49.902;10.876;2023-03-13T02:30:04;21.27;;;19.70;;
2175;SDS011;1094;49.902;10.876;2023-03-13T02:32:30;21.10;;;19.63;;
2175;SDS011;1094;49.902;10.876;2023-03-13T02:34:58;20.50;;;19.30;;
2175;SDS011;1094;49.902;10.876;2023-03-13T02:37:26;21.33;;;19.63;;
2175;SDS011;1094;49.902;10.876;2023-03-13T02:39:53;20.33;;;19.03;;
2175;SDS011;1094;49.902;10.876;2023-03-13T02:42:23;21.67;;;19.67;;
2175;SDS011;1094;49.902;10.876;2023-03-13T02:44:50;22.67;;;19.70;;
2175;SDS011;1094;49.902;10.876;2023-03-13T02:47:20;21.97;;;20.40;;
2175;SDS011;1094;49.902;10.876;2023-03-13T02:49:46;21.43;;;19.63;;
2175;SDS011;1094;49.902;10.876;2023-03-13T02:54:38;20.17;;;18.97;;
2175;SDS011;1094;49.902;10.876;2023-03-13T02:57:05;21.93;;;19.80;;
2175;SDS011;1094;49.902;10.876;2023-03-13T02:59:31;20.53;;;18.60;;
2175;SDS011;1094;49.902;10.876;2023-03-13T03:01:59;20.70;;;18.97;;
2175;SDS011;1094;49.902;10.876;2023-03-13T03:04:25;20.50;;;19.10;;
2175;SDS011;1094;49.902;10.876;2023-03-13T03:06:51;21.97;;;19.67;;
2175;SDS011;1094;49.902;10.876;2023-03-13T03:09:18;20.00;;;18.70;;
2175;SDS011;1094;49.902;10.876;2023-03-13T03:11:44;21.70;;;19.40;;
2175;SDS011;1094;49.902;10.876;2023-03-13T03:14:10;20.57;;;19.13;;
2175;SDS011;1094;49.902;10.876;2023-03-13T03:16:37;21.83;;;20.33;;
2175;SDS011;1094;49.902;10.876;2023-03-13T03:19:03;20.70;;;19.50;;
2175;SDS011;1094;49.902;10.876;2023-03-13T03:21:30;22.83;;;20.50;;
2175;SDS011;1094;49.902;10.876;2023-03-13T03:23:56;20.83;;;19.23;;
2175;SDS011;1094;49.902;10.876;2023-03-13T03:26:22;21.30;;;19.20;;
2175;SDS011;1094;49.902;10.876;2023-03-13T03:28:52;20.07;;;18.47;;
2175;SDS011;1094;49.902;10.876;2023-03-13T03:31:18;21.67;;;20.10;;
2175;SDS011;1094;49.902;10.876;2023-03-13T03:33:44;19.77;;;18.30;;
2175;SDS011;1094;49.902;10.876;2023-03-13T03:36:11;20.90;;;19.37;;
2175;SDS011;1094;49.902;10.876;2023-03-13T03:38:38;20.33;;;19.03;;
2175;SDS011;1094;49.902;10.876;2023-03-13T03:41:04;22.50;;;20.70;;
2175;SDS011;1094;49.902;10.876;2023-03-13T03:43:31;22.23;;;20.33;;
2175;SDS011;1094;49.902;10.876;2023-03-13T03:45:58;20.47;;;19.00;;
2175;SDS011;1094;49.902;10.876;2023-03-13T03:48:24;21.63;;;20.10;;
2175;SDS011;1094;49.902;10.876;2023-03-13T03:50:50;20.33;;;18.93;;
2175;SDS011;1094;49.902;10.876;2023-03-13T03:53:16;21.87;;;19.87;;
2175;SDS011;1094;49.902;10.876;2023-03-13T03:55:42;22.83;;;21.13;;
2175;SDS011;1094;49.902;10.876;2023-03-13T03:58:09;21.20;;;19.70;;
2175;SDS011;1094;49.902;10.876;2023-03-13T04:00:34;20.30;;;18.80;;
2175;SDS011;1094;49.902;10.876;2023-03-13T04:03:00;20.77;;;19.33;;
2175;SDS011;1094;49.902;10.876;2023-03-13T04:05:27;21.70;;;20.00;;
2175;SDS011;1094;49.902;10.876;2023-03-13T04:07:52;21.43;;;19.83;;
2175;SDS011;1094;49.902;10.876;2023-03-13T04:10:18;21.83;;;20.20;;
2175;SDS011;1094;49.902;10.876;2023-03-13T04:12:45;20.80;;;19.27;;
2175;SDS011;1094;49.902;10.876;2023-03-13T04:15:10;20.80;;;19.00;;
2175;SDS011;1094;49.902;10.876;2023-03-13T04:17:36;20.13;;;18.80;;
2175;SDS011;1094;49.902;10.876;2023-03-13T04:20:03;21.23;;;19.53;;
2175;SDS011;1094;49.902;10.876;2023-03-13T04:22:30;24.00;;;19.73;;
2175;SDS011;1094;49.902;10.876;2023-03-13T04:24:56;22.13;;;20.10;;
2175;SDS011;1094;49.902;10.876;2023-03-13T04:27:22;20.67;;;18.97;;
2175;SDS011;1094;49.902;10.876;2023-03-13T04:29:48;22.23;;;19.80;;
2175;SDS011;1094;49.902;10.876;2023-03-13T04:32:14;20.13;;;18.90;;
2175;SDS011;1094;49.902;10.876;2023-03-13T04:34:39;21.07;;;19.30;;
2175;SDS011;1094;49.902;10.876;2023-03-13T04:37:05;20.10;;;18.63;;
2175;SDS011;1094;49.902;10.876;2023-03-13T04:39:31;20.23;;;18.90;;
2175;SDS011;1094;49.902;10.876;2023-03-13T04:41:57;23.17;;;21.10;;
2175;SDS011;1094;49.902;10.876;2023-03-13T04:44:23;20.43;;;18.63;;
2175;SDS011;1094;49.902;10.876;2023-03-13T04:46:49;23.13;;;20.77;;
2175;SDS011;1094;49.902;10.876;2023-03-13T04:49:15;23.83;;;22.10;;
2175;SDS011;1094;49.902;10.876;2023-03-13T04:51:41;21.57;;;20.00;;
2175;SDS011;1094;49.902;10.876;2023-03-13T04:54:08;21.90;;;19.83;;
2175;SDS011;1094;49.902;10.876;2023-03-13T04:56:34;20.10;;;18.63;;
2175;SDS011;1094;49.902;10.876;2023-03-13T04:59:00;21.33;;;19.23;;
2175;SDS011;1094;49.902;10.876;2023-03-13T05:01:26;20.87;;;19.23;;
2175;SDS011;1094;49.902;10.876;2023-03-13T05:03:52;23.27;;;21.43;;
2175;SDS011;1094;49.902;10.876;2023-03-13T05:06:18;21.20;;;19.50;;
2175;SDS011;1094;49.902;10.876;2023-03-13T05:08:43;19.70;;;18.60;;
2175;SDS011;1094;49.902;10.876;2023-03-13T05:11:10;20.93;;;19.07;;
2175;SDS011;1094;49.902;10.876;2023-03-13T05:13:36;20.60;;;19.00;;
2175;SDS011;1094;49.902;10.876;2023-03-13T05:16:02;21.70;;;19.80;;
2175;SDS011;1094;49.902;10.876;2023-03-13T05:18:28;21.03;;;19.33;;
2175;SDS011;1094;49.902;10.876;2023-03-13T05:20:54;21.87;;;20.20;;
2175;SDS011;1094;49.902;10.876;2023-03-13T05:23:20;22.23;;;20.23;;
2175;SDS011;1094;49.902;10.876;2023-03-13T05:25:46;21.50;;;19.80;;
2175;SDS011;1094;49.902;10.876;2023-03-13T05:28:12;24.50;;;21.20;;
2175;SDS011;1094;49.902;10.876;2023-03-13T05:30:37;23.60;;;21.70;;
2175;SDS011;1094;49.902;10.876;2023-03-13T05:33:03;22.40;;;20.20;;
2175;SDS011;1094;49.902;10.876;2023-03-13T05:35:29;22.90;;;20.60;;
2175;SDS011;1094;49.902;10.876;2023-03-13T05:37:55;22.33;;;20.30;;
2175;SDS011;1094;49.902;10.876;2023-03-13T05:40:21;22.53;;;20.40;;
2175;SDS011;1094;49.902;10.876;2023-03-13T05:42:47;21.83;;;19.93;;
2175;SDS011;1094;49.902;10.876;2023-03-13T05:45:13;20.53;;;18.87;;
2175;SDS011;1094;49.902;10.876;2023-03-13T05:47:39;20.10;;;18.17;;
2175;SDS011;1094;49.902;10.876;2023-03-13T05:50:06;20.80;;;18.80;;
2175;SDS011;1094;49.902;10.876;2023-03-13T05:52:32;19.90;;;18.40;;
2175;SDS011;1094;49.902;10.876;2023-03-13T05:54:58;20.07;;;18.27;;
2175;SDS011;1094;49.902;10.876;2023-03-13T05:57:24;19.13;;;17.50;;
2175;SDS011;1094;49.902;10.876;2023-03-13T05:59:50;19.37;;;18.00;;
2175;SDS011;1094;49.902;10.876;2023-03-13T06:02:16;19.77;;;17.73;;
2175;SDS011;1094;49.902;10.876;2023-03-13T06:04:44;20.40;;;17.97;;
2175;SDS011;1094;49.902;10.876;2023-03-13T06:07:10;19.27;;;17.80;;
2175;SDS011;1094;49.902;10.876;2023-03-13T06:09:36;19.60;;;17.87;;
2175;SDS011;1094;49.902;10.876;2023-03-13T06:12:02;19.63;;;17.80;;
2175;SDS011;1094;49.902;10.876;2023-03-13T06:14:28;19.73;;;18.23;;
2175;SDS011;1094;49.902;10.876;2023-03-13T06:16:54;19.00;;;17.57;;
2175;SDS011;1094;49.902;10.876;2023-03-13T06:19:20;20.07;;;18.63;;
2175;SDS011;1094;49.902;10.876;2023-03-13T06:21:48;20.47;;;18.87;;
2175;SDS011;1094;49.902;10.876;2023-03-13T06:24:14;20.43;;;18.73;;
2175;SDS011;1094;49.902;10.876;2023-03-13T06:26:40;20.80;;;18.90;;
2175;SDS011;1094;49.902;10.876;2023-03-13T06:29:06;20.13;;;18.70;;
2175;SDS011;1094;49.902;10.876;2023-03-13T06:31:32;20.47;;;18.97;;
2175;SDS011;1094;49.902;10.876;2023-03-13T06:33:58;20.10;;;18.60;;
2175;SDS011;1094;49.902;10.876;2023-03-13T06:36:24;20.47;;;19.10;;
2175;SDS011;1094;49.902;10.876;2023-03-13T06:38:50;20.50;;;19.00;;
2175;SDS011;1094;49.902;10.876;2023-03-13T06:41:16;19.90;;;18.73;;
2175;SDS011;1094;49.902;10.876;2023-03-13T06:43:42;20.03;;;18.40;;
2175;SDS011;1094;49.902;10.876;2023-03-13T06:46:08;20.37;;;18.67;;
2175;SDS011;1094;49.902;10.876;2023-03-13T06:48:40;20.00;;;18.47;;
2175;SDS011;1094;49.902;10.876;2023-03-13T06:51:10;20.33;;;18.50;;
2175;SDS011;1094;49.902;10.876;2023-03-13T06:53:36;20.33;;;18.70;;
2175;SDS011;1094;49.902;10.876;2023-03-13T06:56:02;19.43;;;17.83;;
2175;SDS011;1094;49.902;10.876;2023-03-13T06:58:28;18.87;;;17.20;;
2175;SDS011;1094;49.902;10.876;2023-03-13T07:00:54;18.60;;;17.00;;
2175;SDS011;1094;49.902;10.876;2023-03-13T07:03:20;17.30;;;16.30;;
2175;SDS011;1094;49.902;10.876;2023-03-13T07:05:47;17.03;;;15.70;;
2175;SDS011;1094;49.902;10.876;2023-03-13T07:08:13;17.50;;;16.20;;
2175;SDS011;1094;49.902;10.876;2023-03-13T07:10:41;16.10;;;15.30;;
2175;SDS011;1094;49.902;10.876;2023-03-13T07:13:07;14.87;;;13.93;;
2175;SDS011;1094;49.902;10.876;2023-03-13T07:15:33;15.87;;;14.83;;
2175;SDS011;1094;49.902;10.876;2023-03-13T07:17:59;14.87;;;13.83;;
2175;SDS011;1094;49.902;10.876;2023-03-13T07:20:25;15.87;;;14.70;;
2175;SDS011;1094;49.902;10.876;2023-03-13T07:22:51;15.67;;;14.67;;
2175;SDS011;1094;49.902;10.876;2023-03-13T07:25:18;15.17;;;14.30;;
2175;SDS011;1094;49.902;10.876;2023-03-13T07:27:44;15.73;;;14.87;;
2175;SDS011;1094;49.902;10.876;2023-03-13T07:30:10;17.40;;;15.23;;
2175;SDS011;1094;49.902;10.876;2023-03-13T07:32:36;16.13;;;15.23;;
2175;SDS011;1094;49.902;10.876;2023-03-13T07:35:02;16.30;;;15.07;;
2175;SDS011;1094;49.902;10.876;2023-03-13T07:37:28;16.37;;;15.17;;
2175;SDS011;1094;49.902;10.876;2023-03-13T07:39:54;17.40;;;16.10;;
2175;SDS011;1094;49.902;10.876;2023-03-13T07:42:20;16.57;;;15.40;;
2175;SDS011;1094;49.902;10.876;2023-03-13T07:44:46;17.07;;;15.30;;
2175;SDS011;1094;49.902;10.876;2023-03-13T07:47:12;15.57;;;14.77;;
2175;SDS011;1094;49.902;10.876;2023-03-13T07:49:38;17.37;;;15.73;;
2175;SDS011;1094;49.902;10.876;2023-03-13T07:52:07;17.30;;;15.90;;
2175;SDS011;1094;49.902;10.876;2023-03-13T07:54:33;17.07;;;15.93;;
2175;SDS011;1094;49.902;10.876;2023-03-13T07:57:00;16.67;;;15.60;;
2175;SDS011;1094;49.902;10.876;2023-03-13T07:59:26;17.67;;;16.00;;
2175;SDS011;1094;49.902;10.876;2023-03-13T08:01:52;15.63;;;14.90;;
2175;SDS011;1094;49.902;10.876;2023-03-13T08:04:18;16.50;;;15.30;;
2175;SDS011;1094;49.902;10.876;2023-03-13T08:06:44;16.77;;;15.60;;
2175;SDS011;1094;49.902;10.876;2023-03-13T08:09:10;16.37;;;15.17;;
2175;SDS011;1094;49.902;10.876;2023-03-13T08:11:37;16.60;;;15.50;;
2175;SDS011;1094;49.902;10.876;2023-03-13T08:14:05;16.90;;;15.73;;
2175;SDS011;1094;49.902;10.876;2023-03-13T08:16:31;17.07;;;15.87;;
2175;SDS011;1094;49.902;10.876;2023-03-13T08:18:58;17.87;;;16.33;;
2175;SDS011;1094;49.902;10.876;2023-03-13T08:21:26;17.30;;;15.87;;
2175;SDS011;1094;49.902;10.876;2023-03-13T08:23:53;17.60;;;16.30;;
2175;SDS011;1094;49.902;10.876;2023-03-13T08:26:19;17.30;;;16.17;;
2175;SDS011;1094;49.902;10.876;2023-03-13T08:28:47;17.70;;;16.80;;
2175;SDS011;1094;49.902;10.876;2023-03-13T08:31:17;18.50;;;16.90;;
2175;SDS011;1094;49.902;10.876;2023-03-13T08:33:43;18.10;;;16.80;;
2175;SDS011;1094;49.902;10.876;2023-03-13T08:36:16;17.07;;;16.10;;
2175;SDS011;1094;49.902;10.876;2023-03-13T08:38:43;17.63;;;16.37;;
2175;SDS011;1094;49.902;10.876;2023-03-13T08:41:10;17.07;;;16.17;;
2175;SDS011;1094;49.902;10.876;2023-03-13T08:43:36;17.43;;;16.40;;
2175;SDS011;1094;49.902;10.876;2023-03-13T08:46:02;17.70;;;16.70;;
2175;SDS011;1094;49.902;10.876;2023-03-13T08:48:28;17.23;;;16.07;;
2175;SDS011;1094;49.902;10.876;2023-03-13T08:50:59;17.27;;;16.27;;
2175;SDS011;1094;49.902;10.876;2023-03-13T08:53:25;18.50;;;17.10;;
2175;SDS011;1094;49.902;10.876;2023-03-13T08:55:51;17.80;;;16.60;;
2175;SDS011;1094;49.902;10.876;2023-03-13T08:58:17;17.77;;;16.77;;
2175;SDS011;1094;49.902;10.876;2023-03-13T09:00:43;17.97;;;16.87;;
2175;SDS011;1094;49.902;10.876;2023-03-13T09:03:09;18.10;;;16.77;;
2175;SDS011;1094;49.902;10.876;2023-03-13T09:05:38;17.67;;;16.57;;
2175;SDS011;1094;49.902;10.876;2023-03-13T09:08:04;19.43;;;18.07;;
2175;SDS011;1094;49.902;10.876;2023-03-13T09:10:34;18.77;;;17.47;;
2175;SDS011;1094;49.902;10.876;2023-03-13T09:13:00;18.30;;;17.20;;
2175;SDS011;1094;49.902;10.876;2023-03-13T09:15:26;19.60;;;18.10;;
2175;SDS011;1094;49.902;10.876;2023-03-13T09:17:53;19.10;;;17.50;;
2175;SDS011;1094;49.902;10.876;2023-03-13T09:20:19;18.57;;;17.57;;
2175;SDS011;1094;49.902;10.876;2023-03-13T09:22:45;18.60;;;17.43;;
2175;SDS011;1094;49.902;10.876;2023-03-13T09:25:11;18.87;;;17.67;;
2175;SDS011;1094;49.902;10.876;2023-03-13T09:27:37;18.03;;;16.87;;
2175;SDS011;1094;49.902;10.876;2023-03-13T09:30:04;18.00;;;16.90;;
2175;SDS011;1094;49.902;10.876;2023-03-13T09:32:30;18.47;;;17.07;;
2175;SDS011;1094;49.902;10.876;2023-03-13T09:34:56;17.47;;;16.47;;
2175;SDS011;1094;49.902;10.876;2023-03-13T09:37:22;19.80;;;18.40;;
2175;SDS011;1094;49.902;10.876;2023-03-13T09:39:48;18.50;;;17.20;;
2175;SDS011;1094;49.902;10.876;2023-03-13T09:42:14;18.47;;;17.17;;
2175;SDS011;1094;49.902;10.876;2023-03-13T09:45:04;18.37;;;17.10;;
2175;SDS011;1094;49.902;10.876;2023-03-13T09:47:45;17.47;;;16.57;;
2175;SDS011;1094;49.902;10.876;2023-03-13T09:50:17;18.37;;;17.20;;
2175;SDS011;1094;49.902;10.876;2023-03-13T09:52:46;19.43;;;18.13;;
2175;SDS011;1094;49.902;10.876;2023-03-13T09:55:16;18.20;;;17.20;;
2175;SDS011;1094;49.902;10.876;2023-03-13T10:02:56;16.50;;;15.60;;
2175;SDS011;1094;49.902;10.876;2023-03-13T10:05:24;17.00;;;16.17;;
2175;SDS011;1094;49.902;10.876;2023-03-13T10:07:53;17.33;;;16.53;;
2175;SDS011;1094;49.902;10.876;2023-03-13T10:10:41;17.17;;;16.37;;
2175;SDS011;1094;49.902;10.876;2023-03-13T10:13:17;18.10;;;16.97;;
2175;SDS011;1094;49.902;10.876;2023-03-13T10:15:49;17.53;;;16.63;;
2175;SDS011;1094;49.902;10.876;2023-03-13T10:18:18;17.87;;;16.87;;
2175;SDS011;1094;49.902;10.876;2023-03-13T10:20:49;17.57;;;16.57;;
2175;SDS011;1094;49.902;10.876;2023-03-13T10:23:20;17.67;;;16.77;;
2175;SDS011;1094;49.902;10.876;2023-03-13T10:25:46;17.10;;;16.30;;
2175;SDS011;1094;49.902;10.876;2023-03-13T10:28:14;17.40;;;16.50;;
2175;SDS011;1094;49.902;10.876;2023-03-13T10:30:45;17.70;;;16.80;;
2175;SDS011;1094;49.902;10.876;2023-03-13T10:35:39;18.13;;;17.10;;
2175;SDS011;1094;49.902;10.876;2023-03-13T10:38:09;17.93;;;16.83;;
2175;SDS011;1094;49.902;10.876;2023-03-13T10:40:36;17.10;;;16.30;;
2175;SDS011;1094;49.902;10.876;2023-03-13T10:43:11;17.53;;;16.50;;
2175;SDS011;1094;49.902;10.876;2023-03-13T10:45:37;17.30;;;16.40;;
2175;SDS011;1094;49.902;10.876;2023-03-13T10:48:10;17.83;;;16.93;;
2175;SDS011;1094;49.902;10.876;2023-03-13T10:50:37;17.30;;;16.50;;
2175;SDS011;1094;49.902;10.876;2023-03-13T10:53:07;18.43;;;17.50;;
2175;SDS011;1094;49.902;10.876;2023-03-13T10:55:42;17.40;;;16.50;;
2175;SDS011;1094;49.902;10.876;2023-03-13T10:58:12;17.57;;;16.70;;
2175;SDS011;1094;49.902;10.876;2023-03-13T11:00:41;17.63;;;16.73;;
2175;SDS011;1094;49.902;10.876;2023-03-13T11:03:13;17.20;;;16.40;;
2175;SDS011;1094;49.902;10.876;2023-03-13T11:05:41;17.90;;;17.00;;
2175;SDS011;1094;49.902;10.876;2023-03-13T11:08:12;17.83;;;16.83;;
2175;SDS011;1094;49.902;10.876;2023-03-13T11:10:51;17.60;;;16.70;;
2175;SDS011;1094;49.902;10.876;2023-03-13T11:18:42;17.37;;;16.47;;
2175;SDS011;1094;49.902;10.876;2023-03-13T11:21:16;17.67;;;16.83;;
2175;SDS011;1094;49.902;10.876;2023-03-13T11:23:44;18.20;;;17.30;;
2175;SDS011;1094;49.902;10.876;2023-03-13T11:26:26;18.50;;;17.60;;
2175;SDS011;1094;49.902;10.876;2023-03-13T11:28:57;17.97;;;17.17;;
2175;SDS011;1094;49.902;10.876;2023-03-13T11:31:39;18.20;;;16.90;;
2175;SDS011;1094;49.902;10.876;2023-03-13T11:47:27;17.60;;;16.80;;
2175;SDS011;1094;49.902;10.876;2023-03-13T11:50:01;17.97;;;17.07;;
2175;SDS011;1094;49.902;10.876;2023-03-13T11:52:47;18.20;;;17.13;;
2175;SDS011;1094;49.902;10.876;2023-03-13T11:57:46;17.50;;;16.70;;
2175;SDS011;1094;49.902;10.876;2023-03-13T12:00:19;18.67;;;17.50;;
2175;SDS011;1094;49.902;10.876;2023-03-13T12:05:34;18.17;;;17.03;;
2175;SDS011;1094;49.902;10.876;2023-03-13T12:08:02;18.87;;;17.77;;
2175;SDS011;1094;49.902;10.876;2023-03-13T12:10:37;18.63;;;17.63;;
2175;SDS011;1094;49.902;10.876;2023-03-13T12:13:22;18.20;;;17.30;;
2175;SDS011;1094;49.902;10.876;2023-03-13T12:15:53;18.50;;;17.60;;
2175;SDS011;1094;49.902;10.876;2023-03-13T12:18:31;18.87;;;17.73;;
2175;SDS011;1094;49.902;10.876;2023-03-13T12:31:38;19.40;;;18.30;;
2175;SDS011;1094;49.902;10.876;2023-03-13T12:34:19;18.40;;;17.40;;
2175;SDS011;1094;49.902;10.876;2023-03-13T12:36:56;18.53;;;17.37;;
2175;SDS011;1094;49.902;10.876;2023-03-13T12:44:36;18.47;;;17.00;;
2175;SDS011;1094;49.902;10.876;2023-03-13T12:59:45;18.20;;;17.20;;
2175;SDS011;1094;49.902;10.876;2023-03-13T13:02:17;17.97;;;17.10;;
2175;SDS011;1094;49.902;10.876;2023-03-13T13:04:44;17.30;;;16.50;;
2175;SDS011;1094;49.902;10.876;2023-03-13T13:07:19;18.23;;;17.23;;
2175;SDS011;1094;49.902;10.876;2023-03-13T13:12:42;18.20;;;17.30;;
2175;SDS011;1094;49.902;10.876;2023-03-13T13:15:24;18.03;;;17.13;;
2175;SDS011;1094;49.902;10.876;2023-03-13T13:18:02;18.10;;;17.20;;
2175;SDS011;1094;49.902;10.876;2023-03-13T13:26:36;18.00;;;17.10;;
2175;SDS011;1094;49.902;10.876;2023-03-13T13:28:55;18.20;;;17.23;;
2175;SDS011;1094;49.902;10.876;2023-03-13T13:34:07;17.50;;;16.70;;
2175;SDS011;1094;49.902;10.876;2023-03-13T13:36:39;18.23;;;17.33;;
2175;SDS011;1094;49.902;10.876;2023-03-13T13:39:20;18.30;;;17.30;;
2175;SDS011;1094;49.902;10.876;2023-03-13T13:41:47;18.80;;;17.80;;
2175;SDS011;1094;49.902;10.876;2023-03-13T13:44:13;19.67;;;18.57;;
2175;SDS011;1094;49.902;10.876;2023-03-13T13:46:44;19.63;;;18.50;;
2175;SDS011;1094;49.902;10.876;2023-03-13T13:49:14;19.20;;;18.20;;
2175;SDS011;1094;49.902;10.876;2023-03-13T13:51:42;19.53;;;;;
2175;SDS011;1094;49.902;10.876;2023-03-13T13:54:29;19.33;;;18.03;;
2175;SDS011;1094;49.902;10.876;2023-03-13T13:56:57;20.13;;;18.70;;
2175;SDS011;1094;49.902;10.876;2023-03-13T13:59:31;19.63;;;18.63;;
2175;SDS011;1094;49.902;10.876;2023-03-13T14:10:12;19.77;;;18.47;;
2175;SDS011;1094;49.902;10.876;2023-03-13T14:12:44;19.87;;;18.47;;
2175;SDS011;1094;49.902;10.876;2023-03-13T14:15:14;19.20;;;18.10;;
2175;SDS011;1094;49.902;10.876;2023-03-13T14:17:45;18.90;;;17.90;;
2175;SDS011;1094;49.902;10.876;2023-03-13T14:20:18;19.67;;;18.20;;
2175;SDS011;1094;49.902;10.876;2023-03-13T14:22:47;19.43;;;18.23;;
2175;SDS011;1094;49.902;10.876;2023-03-13T14:25:13;19.03;;;17.93;;
2175;SDS011;1094;49.902;10.876;2023-03-13T14:27:43;18.60;;;17.70;;
2175;SDS011;1094;49.902;10.876;2023-03-13T14:30:09;18.87;;;17.77;;
2175;SDS011;1094;49.902;10.876;2023-03-13T14:32:35;19.27;;;18.17;;
2175;SDS011;1094;49.902;10.876;2023-03-13T14:35:03;19.23;;;18.10;;
2175;SDS011;1094;49.902;10.876;2023-03-13T14:37:46;19.30;;;18.20;;
2175;SDS011;1094;49.902;10.876;2023-03-13T14:42:45;19.57;;;18.43;;
2175;SDS011;1094;49.902;10.876;2023-03-13T14:45:13;19.47;;;18.37;;
2175;SDS011;1094;49.902;10.876;2023-03-13T14:47:40;18.97;;;17.93;;
2175;SDS011;1094;49.902;10.876;2023-03-13T14:50:12;19.10;;;18.10;;
2175;SDS011;1094;49.902;10.876;2023-03-13T14:52:45;19.90;;;18.80;;
2175;SDS011;1094;49.902;10.876;2023-03-13T14:58:04;19.23;;;18.23;;
2175;SDS011;1094;49.902;10.876;2023-03-13T15:00:33;20.50;;;19.40;;
2175;SDS011;1094;49.902;10.876;2023-03-13T15:08:37;19.57;;;18.37;;
2175;SDS011;1094;49.902;10.876;2023-03-13T15:13:45;19.57;;;18.57;;
2175;SDS011;1094;49.902;10.876;2023-03-13T15:16:13;20.03;;;18.87;;
2175;SDS011;1094;49.902;10.876;2023-03-13T15:18:39;19.67;;;18.63;;
2175;SDS011;1094;49.902;10.876;2023-03-13T15:23:37;19.70;;;18.50;;
2175;SDS011;1094;49.902;10.876;2023-03-13T15:26:03;20.83;;;19.63;;
2175;SDS011;1094;49.902;10.876;2023-03-13T15:28:29;19.67;;;18.67;;
2175;SDS011;1094;49.902;10.876;2023-03-13T15:30:55;19.77;;;18.63;;
2175;SDS011;1094;49.902;10.876;2023-03-13T15:33:22;19.57;;;18.37;;
2175;SDS011;1094;49.902;10.876;2023-03-13T15:35:48;20.23;;;18.80;;
2175;SDS011;1094;49.902;10.876;2023-03-13T15:38:15;20.47;;;19.17;;
2175;SDS011;1094;49.902;10.876;2023-03-13T15:40:42;19.97;;;18.90;;
2175;SDS011;1094;49.902;10.876;2023-03-13T15:43:09;19.97;;;18.73;;
2175;SDS011;1094;49.902;10.876;2023-03-13T15:45:35;19.27;;;17.93;;
2175;SDS011;1094;49.902;10.876;2023-03-13T15:48:04;19.83;;;18.70;;
2175;SDS011;1094;49.902;10.876;2023-03-13T15:50:35;19.13;;;18.20;;
2175;SDS011;1094;49.902;10.876;2023-03-13T15:53:01;18.73;;;17.73;;
2175;SDS011;1094;49.902;10.876;2023-03-13T15:55:27;19.40;;;18.20;;
2175;SDS011;1094;49.902;10.876;2023-03-13T15:57:54;18.97;;;17.97;;
2175;SDS011;1094;49.902;10.876;2023-03-13T16:00:21;19.40;;;18.30;;
2175;SDS011;1094;49.902;10.876;2023-03-13T16:02:47;19.27;;;18.10;;
2175;SDS011;1094;49.902;10.876;2023-03-13T16:05:14;19.90;;;18.60;;
2175;SDS011;1094;49.902;10.876;2023-03-13T16:07:39;19.30;;;18.20;;
2175;SDS011;1094;49.902;10.876;2023-03-13T16:10:11;19.40;;;18.37;;
2175;SDS011;1094;49.902;10.876;2023-03-13T16:12:39;19.50;;;18.40;;
2175;SDS011;1094;49.902;10.876;2023-03-13T16:15:05;19.33;;;18.33;;
2175;SDS011;1094;49.902;10.876;2023-03-13T16:17:31;19.33;;;18.33;;
2175;SDS011;1094;49.902;10.876;2023-03-13T16:19:57;20.37;;;19.00;;
2175;SDS011;1094;49.902;10.876;2023-03-13T16:22:23;19.47;;;18.43;;